Fort Eustis, Virginia
Current Conditions -  °F | °C
As of 12:58 PM on Friday 24 Oct 2014 (Local Time) from KFAF Reporting Station
Clear Clear  
Wind Chill: 65°   Ceiling: Unl
Heat Index: 65°   Visibility: 10mi
Dew Point: 44°   Wind: 8mph
Humidity: 46%   Direction: 330°NNW
Pressure: 29.94"   Gusts: NA
Location:  37.13°N, 76.61°W
Report Text: KFAF 241658Z AUTO 33007KT 10SM CLR 18/06 A2994 RMK AO2 SLP142 T01810064 $
Loading
Personal Weather Stations






























Interactive Weather Map
Tropical Storm Tracking
New forecast layout! Learn more

10-Day Weather Forecast

Advertisements
Track Severe Weather on mobile